createdAt,value
2016-12-26T00:00:05.422Z,0
2016-12-26T00:01:05.407Z,0
2016-12-26T00:02:05.395Z,0
2016-12-26T00:03:05.695Z,0
2016-12-26T00:04:05.366Z,0
2016-12-26T00:05:05.352Z,0
2016-12-26T00:06:05.347Z,0
2016-12-26T00:07:05.330Z,0
2016-12-26T00:08:05.320Z,0
2016-12-26T00:09:05.311Z,0
2016-12-26T00:10:05.292Z,0
2016-12-26T00:11:05.283Z,0
2016-12-26T00:12:05.288Z,0
2016-12-26T00:13:05.258Z,0
2016-12-26T00:14:05.238Z,0
2016-12-26T00:15:05.226Z,0
2016-12-26T00:16:05.218Z,0
2016-12-26T00:17:05.197Z,0
2016-12-26T00:18:05.510Z,0
2016-12-26T00:19:05.193Z,0
2016-12-26T00:20:05.177Z,0
2016-12-26T00:21:05.469Z,0
2016-12-26T00:22:05.143Z,0
2016-12-26T00:23:05.128Z,0
2016-12-26T00:24:05.437Z,0
2016-12-26T00:25:05.098Z,0
2016-12-26T00:26:05.087Z,0
2016-12-26T00:27:05.071Z,0
2016-12-26T00:28:05.060Z,0
2016-12-26T00:29:05.357Z,0
2016-12-26T00:30:05.031Z,0
2016-12-26T00:31:05.023Z,0
2016-12-26T00:32:05.009Z,0
2016-12-26T00:33:04.996Z,0
2016-12-26T00:34:04.981Z,0
2016-12-26T00:35:05.317Z,0
2016-12-26T00:36:04.961Z,0
2016-12-26T00:37:04.947Z,0
2016-12-26T00:38:05.248Z,0
2016-12-26T00:39:04.919Z,0
2016-12-26T00:40:04.901Z,0
2016-12-26T00:41:04.896Z,0
2016-12-26T00:42:04.884Z,0
2016-12-26T00:43:04.863Z,0
2016-12-26T00:44:04.852Z,0
2016-12-26T00:45:05.148Z,0
2016-12-26T00:46:04.829Z,0
2016-12-26T00:47:05.128Z,0
2016-12-26T00:48:04.802Z,0
2016-12-26T00:49:05.097Z,0
2016-12-26T00:50:04.777Z,0
2016-12-26T00:51:04.759Z,0
2016-12-26T00:52:04.749Z,0
2016-12-26T00:53:04.738Z,0
2016-12-26T00:54:04.723Z,0
2016-12-26T00:55:04.710Z,0
2016-12-26T00:56:04.698Z,0
2016-12-26T00:57:04.683Z,0
2016-12-26T00:58:04.983Z,0
2016-12-26T00:59:04.658Z,0
2016-12-26T01:00:04.651Z,0
2016-12-26T01:01:04.628Z,0
2016-12-26T01:02:04.650Z,0
2016-12-26T01:03:04.609Z,0
2016-12-26T01:04:04.591Z,0
2016-12-26T01:05:04.594Z,0
2016-12-26T01:06:04.571Z,0
2016-12-26T01:07:04.552Z,0
2016-12-26T01:08:04.544Z,0
2016-12-26T01:09:04.536Z,0
2016-12-26T01:10:04.515Z,0
2016-12-26T01:11:04.507Z,0
2016-12-26T01:12:04.492Z,0
2016-12-26T01:13:04.484Z,0
2016-12-26T01:14:04.465Z,0
2016-12-26T01:15:04.455Z,0
2016-12-26T01:16:04.436Z,0
2016-12-26T01:17:04.429Z,0
2016-12-26T01:18:04.412Z,0
2016-12-26T01:19:04.402Z,0
2016-12-26T01:20:04.395Z,0
2016-12-26T01:21:04.376Z,0
2016-12-26T01:22:04.363Z,0
2016-12-26T01:23:04.344Z,0
2016-12-26T01:24:04.336Z,0
2016-12-26T01:25:04.326Z,0
2016-12-26T01:26:04.313Z,0
2016-12-26T01:27:04.299Z,0
2016-12-26T01:28:04.282Z,0
2016-12-26T01:29:04.272Z,0
2016-12-26T01:30:04.261Z,0
2016-12-26T01:31:04.242Z,0
2016-12-26T01:32:04.236Z,0
2016-12-26T01:33:04.218Z,0
2016-12-26T01:34:04.522Z,0
2016-12-26T01:35:04.192Z,0
2016-12-26T01:36:04.186Z,0
2016-12-26T01:37:04.168Z,0
2016-12-26T01:38:04.163Z,0
2016-12-26T01:39:04.145Z,0
2016-12-26T01:40:04.129Z,0
2016-12-26T01:41:04.115Z,0
2016-12-26T01:42:04.105Z,0
2016-12-26T01:43:04.090Z,0
2016-12-26T01:44:04.081Z,0
2016-12-26T01:45:04.067Z,0
2016-12-26T01:46:04.081Z,0
2016-12-26T01:47:04.040Z,0
2016-12-26T01:48:04.036Z,0
2016-12-26T01:49:04.015Z,0
2016-12-26T01:50:04.001Z,0
2016-12-26T01:51:03.986Z,0
2016-12-26T01:52:03.981Z,0
2016-12-26T01:53:03.965Z,0
2016-12-26T01:54:03.983Z,0
2016-12-26T01:55:03.939Z,0
2016-12-26T01:56:03.926Z,0
2016-12-26T01:57:03.915Z,0
2016-12-26T01:58:03.894Z,0
2016-12-26T01:59:03.884Z,0
2016-12-26T02:00:03.910Z,0
2016-12-26T02:01:03.865Z,0
2016-12-26T02:02:04.167Z,0
2016-12-26T02:03:03.836Z,0
2016-12-26T02:04:03.821Z,0
2016-12-26T02:05:03.813Z,0
2016-12-26T02:06:03.824Z,0
2016-12-26T02:07:03.779Z,0
2016-12-26T02:08:03.772Z,0
2016-12-26T02:09:03.759Z,0
2016-12-26T02:10:03.749Z,0
2016-12-26T02:11:03.736Z,0
2016-12-26T02:12:03.717Z,0
2016-12-26T02:13:03.707Z,0
2016-12-26T02:14:04.008Z,0
2016-12-26T02:15:03.679Z,0
2016-12-26T02:16:03.676Z,0
2016-12-26T02:17:03.657Z,0
2016-12-26T02:18:03.642Z,0
2016-12-26T02:19:03.629Z,0
2016-12-26T02:20:03.617Z,0
2016-12-26T02:21:03.603Z,0
2016-12-26T02:22:03.594Z,0
2016-12-26T02:23:03.579Z,0
2016-12-26T02:24:03.903Z,0
2016-12-26T02:25:03.552Z,0
2016-12-26T02:26:03.542Z,0
2016-12-26T02:27:03.530Z,0
2016-12-26T02:28:03.537Z,0
2016-12-26T02:29:03.500Z,0
2016-12-26T02:30:03.805Z,0
2016-12-26T02:31:03.474Z,0
2016-12-26T02:32:03.459Z,0
2016-12-26T02:33:03.443Z,0
2016-12-26T02:34:04.914Z,0
2016-12-26T02:35:03.743Z,0
2016-12-26T02:36:03.411Z,0
2016-12-26T02:37:03.402Z,0
2016-12-26T02:38:03.382Z,0
2016-12-26T02:39:03.371Z,0
2016-12-26T02:40:03.680Z,0
2016-12-26T02:41:03.345Z,0
2016-12-26T02:42:03.328Z,0
2016-12-26T02:43:03.327Z,0
2016-12-26T02:44:03.313Z,0
2016-12-26T02:45:03.297Z,0
2016-12-26T02:46:03.281Z,0
2016-12-26T02:47:03.275Z,0
2016-12-26T02:48:03.259Z,0
2016-12-26T02:49:03.247Z,0
2016-12-26T02:50:03.225Z,0
2016-12-26T02:51:03.216Z,0
2016-12-26T02:52:03.198Z,0
2016-12-26T02:53:03.190Z,0
2016-12-26T02:54:03.174Z,0
2016-12-26T02:55:03.166Z,0
2016-12-26T02:56:03.149Z,0
2016-12-26T02:57:03.172Z,0
2016-12-26T02:58:03.129Z,0
2016-12-26T02:59:03.120Z,0
2016-12-26T03:00:03.414Z,0
2016-12-26T03:01:03.103Z,0
2016-12-26T03:02:03.084Z,0
2016-12-26T03:03:03.061Z,0
2016-12-26T03:04:03.054Z,0
2016-12-26T03:05:03.032Z,0
2016-12-26T03:06:03.018Z,0
2016-12-26T03:07:03.013Z,0
2016-12-26T03:08:02.999Z,0
2016-12-26T03:09:02.985Z,0
2016-12-26T03:10:02.972Z,0
2016-12-26T03:11:02.957Z,0
2016-12-26T03:12:02.949Z,0
2016-12-26T03:13:03.246Z,0
2016-12-26T03:14:02.918Z,0
2016-12-26T03:15:02.907Z,0
2016-12-26T03:16:02.899Z,0
2016-12-26T03:17:02.883Z,0
2016-12-26T03:18:02.870Z,0
2016-12-26T03:19:02.877Z,0
2016-12-26T03:20:02.843Z,0
2016-12-26T03:21:02.837Z,0
2016-12-26T03:22:03.347Z,0
2016-12-26T03:23:02.804Z,0
2016-12-26T03:24:04.069Z,0
2016-12-26T03:25:02.777Z,0
2016-12-26T03:26:03.082Z,0
2016-12-26T03:27:03.993Z,0
2016-12-26T03:28:02.740Z,0
2016-12-26T03:29:02.728Z,0
2016-12-26T03:30:03.637Z,0
2016-12-26T03:31:02.703Z,0
2016-12-26T03:32:02.688Z,0
2016-12-26T03:33:02.681Z,0
2016-12-26T03:34:02.959Z,0
2016-12-26T03:35:02.651Z,0
2016-12-26T03:36:02.681Z,0
2016-12-26T03:37:03.930Z,0
2016-12-26T03:38:02.924Z,0
2016-12-26T03:39:02.598Z,0
2016-12-26T03:40:03.211Z,0
2016-12-26T03:41:02.573Z,0
2016-12-26T03:42:02.593Z,0
2016-12-26T03:43:03.555Z,0
2016-12-26T03:44:02.849Z,0
2016-12-26T03:45:02.524Z,0
2016-12-26T03:46:02.507Z,0
2016-12-26T03:47:02.815Z,0
2016-12-26T03:48:03.694Z,0
2016-12-26T03:49:02.469Z,0
2016-12-26T03:50:02.455Z,0
2016-12-26T03:51:03.433Z,0
2016-12-26T03:52:02.438Z,0
2016-12-26T03:53:02.419Z,0
2016-12-26T03:54:03.599Z,0
2016-12-26T03:55:02.399Z,0
2016-12-26T03:56:02.703Z,0
2016-12-26T03:57:04.047Z,0
2016-12-26T03:58:02.359Z,0
2016-12-26T03:59:02.348Z,0
2016-12-26T04:00:04.521Z,0
2016-12-26T04:01:02.319Z,0
2016-12-26T04:02:02.301Z,0
2016-12-26T04:03:02.297Z,0
2016-12-26T04:04:02.280Z,0
2016-12-26T04:05:02.274Z,0
2016-12-26T04:06:02.265Z,0
2016-12-26T04:07:03.738Z,0
2016-12-26T04:08:02.227Z,0
2016-12-26T04:09:02.218Z,0
2016-12-26T04:10:03.485Z,0
2016-12-26T04:11:02.193Z,0
2016-12-26T04:12:02.179Z,0
2016-12-26T04:13:02.351Z,0
2016-12-26T04:14:02.157Z,0
2016-12-26T04:15:02.152Z,0
2016-12-26T04:16:02.568Z,0
2016-12-26T04:17:02.115Z,0
2016-12-26T04:18:02.102Z,0
2016-12-26T04:19:02.791Z,0
2016-12-26T04:20:02.072Z,0
2016-12-26T04:21:02.065Z,0
2016-12-26T04:22:02.941Z,0
2016-12-26T04:23:02.038Z,0
2016-12-26T04:24:02.195Z,0
2016-12-26T04:25:02.022Z,0
2016-12-26T04:26:03.322Z,0
2016-12-26T04:27:01.990Z,0
2016-12-26T04:28:01.971Z,0
2016-12-26T04:29:03.155Z,0
2016-12-26T04:30:01.952Z,0
2016-12-26T04:31:01.935Z,0
2016-12-26T04:32:03.274Z,0
2016-12-26T04:33:01.909Z,0
2016-12-26T04:34:02.219Z,0
2016-12-26T04:35:02.164Z,0
2016-12-26T04:36:02.016Z,0
2016-12-26T04:37:03.443Z,0
2016-12-26T04:38:01.853Z,0
2016-12-26T04:39:01.833Z,0
2016-12-26T04:40:03.109Z,0
2016-12-26T04:41:01.812Z,0
2016-12-26T04:42:01.799Z,0
2016-12-26T04:43:03.074Z,0
2016-12-26T04:44:01.766Z,0
2016-12-26T04:45:01.766Z,0
2016-12-26T04:46:02.825Z,0
2016-12-26T04:47:01.736Z,0
2016-12-26T04:48:02.150Z,0
2016-12-26T04:49:01.706Z,0
2016-12-26T04:50:01.696Z,0
2016-12-26T04:51:02.231Z,0
2016-12-26T04:52:01.673Z,0
2016-12-26T04:53:01.662Z,0
2016-12-26T04:54:02.912Z,0
2016-12-26T04:55:01.636Z,0
2016-12-26T04:56:01.631Z,0
2016-12-26T04:57:02.923Z,0
2016-12-26T04:58:01.968Z,0
2016-12-26T04:59:01.581Z,0
2016-12-26T05:00:02.841Z,0
2016-12-26T05:01:01.587Z,0
2016-12-26T05:02:01.546Z,0
2016-12-26T05:03:02.885Z,0
2016-12-26T05:04:01.561Z,0
2016-12-26T05:05:01.537Z,0
2016-12-26T05:06:02.142Z,0
2016-12-26T05:07:01.484Z,0
2016-12-26T05:08:01.467Z,0
2016-12-26T05:09:02.110Z,0
2016-12-26T05:10:01.444Z,0
2016-12-26T05:11:01.434Z,0
2016-12-26T05:12:02.410Z,0
2016-12-26T05:13:01.400Z,0
2016-12-26T05:14:01.391Z,0
2016-12-26T05:15:01.383Z,0
2016-12-26T05:16:01.366Z,0
2016-12-26T05:17:02.591Z,0
2016-12-26T05:18:01.343Z,0
2016-12-26T05:19:01.327Z,0
2016-12-26T05:20:01.867Z,0
2016-12-26T05:21:01.304Z,0
2016-12-26T05:22:01.286Z,0
2016-12-26T05:23:01.596Z,0
2016-12-26T05:24:01.436Z,0
2016-12-26T05:25:01.492Z,0
2016-12-26T05:26:01.239Z,0
2016-12-26T05:27:01.715Z,0
2016-12-26T05:28:01.214Z,0
2016-12-26T05:29:01.204Z,0
2016-12-26T05:30:02.023Z,0
2016-12-26T05:31:01.179Z,0
2016-12-26T05:32:01.164Z,0
2016-12-26T05:33:02.294Z,0
2016-12-26T05:34:01.143Z,0
2016-12-26T05:35:01.127Z,0
2016-12-26T05:36:01.483Z,0
2016-12-26T05:37:01.100Z,0
2016-12-26T05:38:01.364Z,0
2016-12-26T05:39:01.546Z,0
2016-12-26T05:40:01.062Z,0
2016-12-26T05:41:01.049Z,0
2016-12-26T05:42:01.450Z,0
2016-12-26T05:43:01.026Z,0
2016-12-26T05:44:01.007Z,0
2016-12-26T05:45:01.136Z,0
2016-12-26T05:46:00.990Z,0
2016-12-26T05:47:00.969Z,0
2016-12-26T05:48:00.954Z,0
2016-12-26T05:49:01.402Z,0
2016-12-26T05:50:00.931Z,0
2016-12-26T05:51:00.927Z,0
2016-12-26T05:52:01.649Z,0
2016-12-26T05:53:00.896Z,0
2016-12-26T05:54:00.887Z,0
2016-12-26T05:55:01.463Z,0
2016-12-26T05:56:00.890Z,0
2016-12-26T05:57:00.844Z,0
2016-12-26T05:58:01.128Z,0
2016-12-26T05:59:00.819Z,0
2016-12-26T06:00:00.811Z,0
2016-12-26T06:01:01.541Z,0
2016-12-26T06:02:00.785Z,0
2016-12-26T06:03:00.770Z,0
2016-12-26T06:04:01.487Z,0
2016-12-26T06:05:01.805Z,0
2016-12-26T06:06:00.726Z,0
2016-12-26T06:07:00.723Z,0
2016-12-26T06:08:01.692Z,0
2016-12-26T06:09:00.695Z,0
2016-12-26T06:10:00.681Z,0
2016-12-26T06:11:01.575Z,0
2016-12-26T06:12:00.654Z,0
2016-12-26T06:13:00.670Z,0
2016-12-26T06:14:00.943Z,0
2016-12-26T06:15:00.624Z,0
2016-12-26T06:16:00.603Z,0
2016-12-26T06:17:00.589Z,0
2016-12-26T06:18:00.570Z,0
2016-12-26T06:19:00.570Z,0
2016-12-26T06:20:00.552Z,0
2016-12-26T06:21:00.550Z,0
2016-12-26T06:22:00.540Z,0
2016-12-26T06:23:00.514Z,0
2016-12-26T06:24:00.501Z,0
2016-12-26T06:25:00.492Z,0
2016-12-26T06:26:00.478Z,0
2016-12-26T06:27:00.467Z,0
2016-12-26T06:28:00.451Z,0
2016-12-26T06:29:00.438Z,0
2016-12-26T06:30:00.427Z,0
2016-12-26T06:31:00.414Z,0
2016-12-26T06:32:00.400Z,0
2016-12-26T06:33:00.385Z,0
2016-12-26T06:34:00.405Z,0
2016-12-26T06:35:00.359Z,0
2016-12-26T06:36:00.347Z,0
2016-12-26T06:37:00.334Z,0
2016-12-26T06:38:00.324Z,0
2016-12-26T06:39:00.308Z,0
2016-12-26T06:40:00.299Z,0
2016-12-26T06:41:00.288Z,0
2016-12-26T06:42:00.271Z,0
2016-12-26T06:43:00.262Z,0
2016-12-26T06:44:00.240Z,0
2016-12-26T06:45:00.558Z,0
2016-12-26T06:46:00.214Z,0
2016-12-26T06:47:00.212Z,0
2016-12-26T06:48:00.196Z,0
2016-12-26T06:49:00.180Z,0
2016-12-26T06:50:00.204Z,0
2016-12-26T06:51:00.157Z,0
2016-12-26T06:52:00.150Z,0
2016-12-26T06:53:00.127Z,0
2016-12-26T06:54:00.115Z,0
2016-12-26T06:55:00.102Z,0
2016-12-26T06:56:00.094Z,0
2016-12-26T06:57:00.073Z,0
2016-12-26T06:58:00.065Z,0
2016-12-26T06:59:00.051Z,0
2016-12-26T07:00:00.045Z,0
2016-12-26T07:01:00.034Z,0
2016-12-26T07:02:00.014Z,0
2016-12-26T07:03:00.009Z,0
2016-12-26T07:03:59.984Z,0
2016-12-26T07:04:59.976Z,0
2016-12-26T07:05:59.972Z,0
2016-12-26T07:06:59.950Z,0
2016-12-26T07:07:59.943Z,0
2016-12-26T07:08:59.926Z,0
2016-12-26T07:09:59.914Z,0
2016-12-26T07:10:59.899Z,0
2016-12-26T07:11:59.885Z,0
2016-12-26T07:12:59.872Z,0
2016-12-26T07:13:59.867Z,0
2016-12-26T07:14:59.849Z,0
2016-12-26T07:15:59.844Z,0
2016-12-26T07:16:59.824Z,0
2016-12-26T07:17:59.813Z,0
2016-12-26T07:18:59.804Z,5
2016-12-26T07:19:59.789Z,5
2016-12-26T07:20:59.783Z,5
2016-12-26T07:21:59.756Z,5
2016-12-26T07:22:59.772Z,5
2016-12-26T07:23:59.732Z,5
2016-12-26T07:24:59.724Z,5
2016-12-26T07:25:59.711Z,5
2016-12-26T07:26:59.743Z,5
2016-12-26T07:27:59.684Z,5
2016-12-26T07:28:59.671Z,10
2016-12-26T07:29:59.654Z,10
2016-12-26T07:30:59.650Z,10
2016-12-26T07:31:59.631Z,10
2016-12-26T07:32:59.616Z,10
2016-12-26T07:33:59.605Z,15
2016-12-26T07:34:59.589Z,15
2016-12-26T07:35:59.580Z,15
2016-12-26T07:36:59.568Z,15
2016-12-26T07:37:59.567Z,15
2016-12-26T07:38:59.540Z,15
2016-12-26T07:39:59.526Z,15
2016-12-26T07:40:59.521Z,15
2016-12-26T07:41:59.501Z,20
2016-12-26T07:42:59.496Z,15
2016-12-26T07:43:59.478Z,15
2016-12-26T07:44:59.464Z,15
2016-12-26T07:45:59.452Z,20
2016-12-26T07:46:59.440Z,15
2016-12-26T07:47:59.743Z,15
2016-12-26T07:48:59.410Z,15
2016-12-26T07:49:59.398Z,20
2016-12-26T07:50:59.393Z,20
2016-12-26T07:51:59.375Z,25
2016-12-26T07:52:59.361Z,25
2016-12-26T07:53:59.351Z,25
2016-12-26T07:54:59.340Z,25
2016-12-26T07:55:59.326Z,30
2016-12-26T07:56:59.311Z,25
2016-12-26T07:57:59.297Z,25
2016-12-26T07:58:59.288Z,25
2016-12-26T07:59:59.272Z,35
2016-12-26T08:00:59.270Z,30
2016-12-26T08:01:59.257Z,25
2016-12-26T08:02:59.235Z,30
2016-12-26T08:03:59.223Z,30
2016-12-26T08:04:59.214Z,30
2016-12-26T08:05:59.202Z,30
2016-12-26T08:06:59.184Z,30
2016-12-26T08:07:59.171Z,35
2016-12-26T08:08:59.163Z,35
2016-12-26T08:09:59.148Z,35
2016-12-26T08:10:59.137Z,35
2016-12-26T08:11:59.120Z,30
2016-12-26T08:12:59.138Z,30
2016-12-26T08:13:59.097Z,30
2016-12-26T08:14:59.115Z,35
2016-12-26T08:15:59.071Z,35
2016-12-26T08:16:59.059Z,35
2016-12-26T08:17:59.052Z,35
2016-12-26T08:18:59.039Z,40
2016-12-26T08:19:59.024Z,40
2016-12-26T08:20:59.008Z,40
2016-12-26T08:21:58.995Z,45
2016-12-26T08:22:58.985Z,45
2016-12-26T08:23:58.971Z,50
2016-12-26T08:24:58.961Z,40
2016-12-26T08:25:58.973Z,40
2016-12-26T08:26:58.934Z,35
2016-12-26T08:27:58.923Z,40
2016-12-26T08:28:58.908Z,40
2016-12-26T08:29:58.897Z,40
2016-12-26T08:30:58.892Z,45
2016-12-26T08:31:58.879Z,55
2016-12-26T08:32:58.857Z,55
2016-12-26T08:33:58.846Z,55
2016-12-26T08:34:58.834Z,40
2016-12-26T08:35:58.824Z,45
2016-12-26T08:36:58.817Z,40
2016-12-26T08:37:58.800Z,40
2016-12-26T08:38:58.788Z,45
2016-12-26T08:39:58.773Z,50
2016-12-26T08:40:58.761Z,60
2016-12-26T08:41:58.750Z,60
2016-12-26T08:42:58.738Z,60
2016-12-26T08:43:58.740Z,40
2016-12-26T08:44:58.737Z,35
2016-12-26T08:45:58.704Z,35
2016-12-26T08:46:58.685Z,45
2016-12-26T08:47:58.675Z,65
2016-12-26T08:48:58.662Z,60
2016-12-26T08:49:58.652Z,60
2016-12-26T08:50:58.641Z,40
2016-12-26T08:51:58.628Z,30
2016-12-26T08:52:58.617Z,30
2016-12-26T08:53:58.606Z,45
2016-12-26T08:54:58.594Z,55
2016-12-26T08:55:58.592Z,65
2016-12-26T08:56:58.577Z,45
2016-12-26T08:57:58.556Z,35
2016-12-26T08:58:58.540Z,40
2016-12-26T08:59:58.528Z,35
2016-12-26T09:00:58.514Z,35
2016-12-26T09:01:58.507Z,50
2016-12-26T09:02:58.496Z,55
2016-12-26T09:03:58.481Z,70
2016-12-26T09:04:58.471Z,65
2016-12-26T09:05:58.458Z,55
2016-12-26T09:06:58.444Z,45
2016-12-26T09:07:58.433Z,45
2016-12-26T09:08:58.421Z,60
2016-12-26T09:09:58.406Z,80
2016-12-26T09:10:58.397Z,80
2016-12-26T09:11:58.383Z,70
2016-12-26T09:12:58.370Z,60
2016-12-26T09:13:58.361Z,70
2016-12-26T09:14:58.346Z,70
2016-12-26T09:15:58.649Z,60
2016-12-26T09:16:58.323Z,60
2016-12-26T09:17:58.309Z,50
2016-12-26T09:18:58.300Z,45
2016-12-26T09:19:58.283Z,45
2016-12-26T09:20:58.273Z,50
2016-12-26T09:21:58.283Z,70
2016-12-26T09:22:58.252Z,80
2016-12-26T09:23:58.241Z,90
2016-12-26T09:24:58.233Z,80
2016-12-26T09:25:58.218Z,95
2016-12-26T09:26:58.201Z,100
2016-12-26T09:27:58.190Z,85
2016-12-26T09:28:58.219Z,80
2016-12-26T09:29:58.165Z,75
2016-12-26T09:30:58.158Z,65
2016-12-26T09:31:58.143Z,110
2016-12-26T09:32:58.131Z,90
2016-12-26T09:33:58.430Z,105
2016-12-26T09:34:58.104Z,95
2016-12-26T09:35:58.098Z,100
2016-12-26T09:36:58.084Z,120
2016-12-26T09:37:58.072Z,120
2016-12-26T09:38:58.068Z,115
2016-12-26T09:39:58.078Z,130
2016-12-26T09:40:58.039Z,115
2016-12-26T09:41:58.024Z,95
2016-12-26T09:42:58.011Z,100
2016-12-26T09:43:58.001Z,90
2016-12-26T09:44:57.986Z,90
2016-12-26T09:45:57.985Z,90
2016-12-26T09:46:57.977Z,95
2016-12-26T09:47:57.957Z,95
2016-12-26T09:48:57.944Z,105
2016-12-26T09:49:57.936Z,100
2016-12-26T09:50:57.921Z,90
2016-12-26T09:51:57.906Z,95
2016-12-26T09:52:57.899Z,100
2016-12-26T09:53:57.884Z,90
2016-12-26T09:54:57.874Z,100
2016-12-26T09:55:58.174Z,110
2016-12-26T09:56:57.854Z,105
2016-12-26T09:57:57.834Z,100
2016-12-26T09:58:57.824Z,100
2016-12-26T09:59:57.816Z,90
2016-12-26T10:00:57.803Z,85
2016-12-26T10:01:57.786Z,80
2016-12-26T10:02:57.783Z,90
2016-12-26T10:03:57.770Z,110
2016-12-26T10:04:57.754Z,80
2016-12-26T10:05:57.743Z,100
2016-12-26T10:06:57.736Z,90
2016-12-26T10:07:57.722Z,80
2016-12-26T10:08:57.712Z,85
2016-12-26T10:09:57.700Z,85
2016-12-26T10:10:57.682Z,75
2016-12-26T10:11:57.680Z,80
2016-12-26T10:12:57.667Z,85
2016-12-26T10:13:57.656Z,90
2016-12-26T10:14:57.688Z,85
2016-12-26T10:15:57.629Z,95
2016-12-26T10:16:57.620Z,85
2016-12-26T10:17:57.603Z,75
2016-12-26T10:18:57.596Z,75
2016-12-26T10:19:57.590Z,80
2016-12-26T10:20:57.571Z,75
2016-12-26T10:21:57.559Z,75
2016-12-26T10:22:57.572Z,85
2016-12-26T10:23:57.539Z,95
2016-12-26T10:24:57.523Z,100
2016-12-26T10:25:57.517Z,110
2016-12-26T10:26:57.820Z,100
2016-12-26T10:27:57.489Z,90
2016-12-26T10:28:57.480Z,90
2016-12-26T10:29:57.469Z,100
2016-12-26T10:30:57.455Z,100
2016-12-26T10:31:57.450Z,90
2016-12-26T10:32:57.438Z,85
2016-12-26T10:33:57.424Z,80
2016-12-26T10:34:57.411Z,90
2016-12-26T10:35:57.396Z,90
2016-12-26T10:36:57.388Z,95
2016-12-26T10:37:57.380Z,90
2016-12-26T10:38:57.400Z,85
2016-12-26T10:39:57.354Z,90
2016-12-26T10:40:57.343Z,100
2016-12-26T10:41:57.332Z,90
2016-12-26T10:42:57.319Z,85
2016-12-26T10:43:57.310Z,85
2016-12-26T10:44:57.291Z,80
2016-12-26T10:45:57.285Z,95
2016-12-26T10:46:57.277Z,105
2016-12-26T10:47:57.257Z,95
2016-12-26T10:48:57.580Z,85
2016-12-26T10:49:57.242Z,75
2016-12-26T10:50:57.229Z,75
2016-12-26T10:51:57.212Z,70
2016-12-26T10:52:57.207Z,65
2016-12-26T10:53:57.195Z,70
2016-12-26T10:54:57.498Z,75
2016-12-26T10:55:57.171Z,75
2016-12-26T10:56:57.157Z,75
2016-12-26T10:57:57.150Z,80
2016-12-26T10:58:57.164Z,75
2016-12-26T10:59:57.455Z,70
2016-12-26T11:00:57.111Z,80
2016-12-26T11:01:57.103Z,80
2016-12-26T11:02:57.085Z,95
2016-12-26T11:03:57.097Z,90
2016-12-26T11:04:57.069Z,95
2016-12-26T11:05:57.050Z,90
2016-12-26T11:06:57.042Z,85
2016-12-26T11:07:57.029Z,85
2016-12-26T11:08:57.018Z,95
2016-12-26T11:09:57.012Z,95
2016-12-26T11:10:57.004Z,80
2016-12-26T11:11:56.982Z,85
2016-12-26T11:12:57.003Z,90
2016-12-26T11:13:56.961Z,85
2016-12-26T11:14:57.275Z,80
2016-12-26T11:15:56.939Z,90
2016-12-26T11:16:56.927Z,125
2016-12-26T11:17:56.922Z,140
2016-12-26T11:18:56.900Z,125
2016-12-26T11:19:56.892Z,135
2016-12-26T11:20:56.882Z,150
2016-12-26T11:21:56.868Z,145
2016-12-26T11:22:56.859Z,125
2016-12-26T11:23:56.841Z,115
2016-12-26T11:24:57.150Z,120
2016-12-26T11:25:57.137Z,120
2016-12-26T11:26:56.816Z,155
2016-12-26T11:27:56.802Z,170
2016-12-26T11:28:56.794Z,170
2016-12-26T11:29:56.775Z,175
2016-12-26T11:30:56.764Z,170
2016-12-26T11:31:56.759Z,165
2016-12-26T11:32:56.740Z,165
2016-12-26T11:33:56.741Z,160
2016-12-26T11:34:56.723Z,140
2016-12-26T11:35:56.710Z,150
2016-12-26T11:36:56.700Z,165
2016-12-26T11:37:56.684Z,145
2016-12-26T11:38:56.673Z,130
2016-12-26T11:39:56.671Z,130
2016-12-26T11:40:57.004Z,115
2016-12-26T11:41:56.643Z,90
2016-12-26T11:42:56.633Z,100
2016-12-26T11:43:56.616Z,100
2016-12-26T11:44:56.605Z,115
2016-12-26T11:45:56.594Z,105
2016-12-26T11:46:56.584Z,110
2016-12-26T11:47:56.569Z,105
2016-12-26T11:48:56.583Z,125
2016-12-26T11:49:56.545Z,110
2016-12-26T11:50:56.535Z,100
2016-12-26T11:51:56.525Z,110
2016-12-26T11:52:56.515Z,95
2016-12-26T11:53:56.507Z,90
2016-12-26T11:54:56.489Z,75
2016-12-26T11:55:56.484Z,70
2016-12-26T11:56:56.463Z,70
2016-12-26T11:57:56.455Z,65
2016-12-26T11:58:56.449Z,50
2016-12-26T11:59:56.434Z,50
2016-12-26T12:00:56.419Z,40
2016-12-26T12:01:56.408Z,50
2016-12-26T12:02:56.402Z,55
2016-12-26T12:03:56.386Z,60
2016-12-26T12:04:56.375Z,70
2016-12-26T12:05:56.370Z,70
2016-12-26T12:06:56.348Z,60
2016-12-26T12:07:56.339Z,70
2016-12-26T12:08:56.648Z,65
2016-12-26T12:09:56.317Z,75
2016-12-26T12:10:56.305Z,75
2016-12-26T12:11:56.295Z,90
2016-12-26T12:12:56.277Z,85
2016-12-26T12:13:56.268Z,85
2016-12-26T12:14:56.261Z,80
2016-12-26T12:15:56.241Z,85
2016-12-26T12:16:56.230Z,80
2016-12-26T12:17:56.533Z,65
2016-12-26T12:18:56.242Z,75
2016-12-26T12:19:56.200Z,75
2016-12-26T12:20:56.543Z,80
2016-12-26T12:21:56.178Z,75
2016-12-26T12:22:56.166Z,70
2016-12-26T12:23:56.152Z,80
2016-12-26T12:24:56.143Z,70
2016-12-26T12:25:56.129Z,70
2016-12-26T12:26:56.122Z,70
2016-12-26T12:27:56.107Z,65
2016-12-26T12:28:56.095Z,75
2016-12-26T12:29:56.077Z,70
2016-12-26T12:30:56.071Z,80
2016-12-26T12:31:56.073Z,65
2016-12-26T12:32:56.050Z,55
2016-12-26T12:33:56.030Z,70
2016-12-26T12:34:56.030Z,75
2016-12-26T12:35:56.012Z,85
2016-12-26T12:36:56.033Z,90
2016-12-26T12:37:55.991Z,80
2016-12-26T12:38:55.981Z,70
2016-12-26T12:39:55.969Z,65
2016-12-26T12:40:55.957Z,65
2016-12-26T12:41:55.941Z,65
2016-12-26T12:42:55.928Z,55
2016-12-26T12:43:55.917Z,55
2016-12-26T12:44:55.905Z,70
2016-12-26T12:45:55.905Z,60
2016-12-26T12:46:55.881Z,55
2016-12-26T12:47:55.905Z,70
2016-12-26T12:48:55.860Z,75
2016-12-26T12:49:55.855Z,55
2016-12-26T12:50:55.837Z,55
2016-12-26T12:51:55.825Z,50
2016-12-26T12:52:55.836Z,55
2016-12-26T12:53:55.800Z,55
2016-12-26T12:54:55.789Z,65
2016-12-26T12:55:55.781Z,55
2016-12-26T12:56:55.765Z,50
2016-12-26T12:57:55.761Z,50
2016-12-26T12:58:55.775Z,55
2016-12-26T12:59:55.730Z,50
2016-12-26T13:00:55.717Z,50
2016-12-26T13:01:55.709Z,55
2016-12-26T13:02:55.694Z,65
2016-12-26T13:03:55.684Z,50
2016-12-26T13:04:55.675Z,60
2016-12-26T13:05:55.661Z,60
2016-12-26T13:06:55.652Z,60
2016-12-26T13:07:55.636Z,55
2016-12-26T13:08:55.657Z,55
2016-12-26T13:09:55.614Z,60
2016-12-26T13:10:55.927Z,65
2016-12-26T13:11:55.594Z,65
2016-12-26T13:12:55.584Z,60
2016-12-26T13:13:55.566Z,50
2016-12-26T13:14:55.562Z,40
2016-12-26T13:15:55.548Z,40
2016-12-26T13:16:55.536Z,35
2016-12-26T13:17:55.523Z,40
2016-12-26T13:18:55.514Z,35
2016-12-26T13:19:55.503Z,30
2016-12-26T13:20:55.486Z,35
2016-12-26T13:21:55.475Z,45
2016-12-26T13:22:55.786Z,40
2016-12-26T13:23:55.463Z,40
2016-12-26T13:24:55.445Z,45
2016-12-26T13:25:55.436Z,45
2016-12-26T13:26:55.419Z,35
2016-12-26T13:27:55.412Z,35
2016-12-26T13:28:55.397Z,40
2016-12-26T13:29:55.388Z,40
2016-12-26T13:30:55.384Z,40
2016-12-26T13:31:55.362Z,40
2016-12-26T13:32:55.355Z,35
2016-12-26T13:33:55.340Z,35
2016-12-26T13:34:55.329Z,25
2016-12-26T13:35:55.316Z,25
2016-12-26T13:36:55.328Z,25
2016-12-26T13:37:55.297Z,25
2016-12-26T13:38:55.280Z,25
2016-12-26T13:39:55.267Z,25
2016-12-26T13:40:55.258Z,20
2016-12-26T13:41:55.251Z,20
2016-12-26T13:42:55.236Z,20
2016-12-26T13:43:55.221Z,25
2016-12-26T13:44:55.216Z,25
2016-12-26T13:45:55.200Z,30
2016-12-26T13:46:55.186Z,30
2016-12-26T13:47:55.175Z,35
2016-12-26T13:48:55.195Z,40
2016-12-26T13:49:55.153Z,35
2016-12-26T13:50:55.144Z,35
2016-12-26T13:51:55.133Z,30
2016-12-26T13:52:55.119Z,30
2016-12-26T13:53:55.106Z,25
2016-12-26T13:54:55.093Z,25
2016-12-26T13:55:55.089Z,25
2016-12-26T13:56:55.078Z,25
2016-12-26T13:57:55.059Z,25
2016-12-26T13:58:55.047Z,25
2016-12-26T13:59:55.036Z,20
2016-12-26T14:00:55.032Z,20
2016-12-26T14:01:55.009Z,25
2016-12-26T14:02:54.997Z,25
2016-12-26T14:03:54.989Z,25
2016-12-26T14:04:54.976Z,25
2016-12-26T14:05:54.974Z,30
2016-12-26T14:06:54.956Z,40
2016-12-26T14:07:54.945Z,35
2016-12-26T14:08:54.932Z,25
2016-12-26T14:09:54.914Z,20
2016-12-26T14:10:54.911Z,20
2016-12-26T14:11:54.891Z,20
2016-12-26T14:12:54.883Z,20
2016-12-26T14:13:54.870Z,25
2016-12-26T14:14:54.856Z,25
2016-12-26T14:15:54.883Z,25
2016-12-26T14:16:54.831Z,25
2016-12-26T14:17:54.822Z,20
2016-12-26T14:18:54.811Z,15
2016-12-26T14:19:54.795Z,15
2016-12-26T14:20:54.795Z,15
2016-12-26T14:21:54.773Z,10
2016-12-26T14:22:54.765Z,10
2016-12-26T14:23:55.065Z,10
2016-12-26T14:24:54.743Z,10
2016-12-26T14:25:54.729Z,10
2016-12-26T14:26:54.718Z,5
2016-12-26T14:27:54.705Z,5
2016-12-26T14:28:54.688Z,5